sensor_id;sensor_type;location;lat;lon;timestamp;P1;durP1;ratioP1;P2;durP2;ratioP2
2838;SDS011;1427;48.510;9.060;2023-08-08T00:01:31;46.03;;;1.93;;
2838;SDS011;1427;48.510;9.060;2023-08-08T00:04:00;46.07;;;1.70;;
2838;SDS011;1427;48.510;9.060;2023-08-08T00:06:30;45.97;;;1.77;;
2838;SDS011;1427;48.510;9.060;2023-08-08T00:08:58;46.10;;;2.30;;
2838;SDS011;1427;48.510;9.060;2023-08-08T00:11:26;46.13;;;1.60;;
2838;SDS011;1427;48.510;9.060;2023-08-08T00:13:54;45.50;;;1.63;;
2838;SDS011;1427;48.510;9.060;2023-08-08T00:16:22;45.93;;;2.07;;
2838;SDS011;1427;48.510;9.060;2023-08-08T00:18:51;45.57;;;1.27;;
2838;SDS011;1427;48.510;9.060;2023-08-08T00:21:20;45.30;;;1.30;;
2838;SDS011;1427;48.510;9.060;2023-08-08T00:23:49;45.70;;;1.50;;
2838;SDS011;1427;48.510;9.060;2023-08-08T00:26:17;47.13;;;1.63;;
2838;SDS011;1427;48.510;9.060;2023-08-08T00:28:45;46.03;;;1.70;;
2838;SDS011;1427;48.510;9.060;2023-08-08T00:31:14;45.73;;;1.73;;
2838;SDS011;1427;48.510;9.060;2023-08-08T00:33:43;45.57;;;1.50;;
2838;SDS011;1427;48.510;9.060;2023-08-08T00:36:11;45.70;;;1.60;;
2838;SDS011;1427;48.510;9.060;2023-08-08T00:38:39;45.87;;;1.60;;
2838;SDS011;1427;48.510;9.060;2023-08-08T00:41:09;45.97;;;1.60;;
2838;SDS011;1427;48.510;9.060;2023-08-08T00:43:37;45.73;;;1.37;;
2838;SDS011;1427;48.510;9.060;2023-08-08T00:46:05;45.50;;;1.40;;
2838;SDS011;1427;48.510;9.060;2023-08-08T00:48:33;45.37;;;1.30;;
2838;SDS011;1427;48.510;9.060;2023-08-08T00:51:02;45.70;;;1.60;;
2838;SDS011;1427;48.510;9.060;2023-08-08T00:53:30;45.70;;;1.60;;
2838;SDS011;1427;48.510;9.060;2023-08-08T00:55:58;47.07;;;1.97;;
2838;SDS011;1427;48.510;9.060;2023-08-08T00:58:28;45.47;;;1.30;;
2838;SDS011;1427;48.510;9.060;2023-08-08T01:00:56;46.43;;;2.00;;
2838;SDS011;1427;48.510;9.060;2023-08-08T01:03:26;45.90;;;1.90;;
2838;SDS011;1427;48.510;9.060;2023-08-08T01:05:57;45.60;;;1.47;;
2838;SDS011;1427;48.510;9.060;2023-08-08T01:08:31;45.73;;;1.70;;
2838;SDS011;1427;48.510;9.060;2023-08-08T01:11:04;45.57;;;1.20;;
2838;SDS011;1427;48.510;9.060;2023-08-08T01:13:34;46.70;;;1.67;;
2838;SDS011;1427;48.510;9.060;2023-08-08T01:16:04;45.93;;;1.60;;
2838;SDS011;1427;48.510;9.060;2023-08-08T01:18:33;45.50;;;1.60;;
2838;SDS011;1427;48.510;9.060;2023-08-08T01:21:02;45.80;;;1.77;;
2838;SDS011;1427;48.510;9.060;2023-08-08T01:23:33;45.67;;;1.27;;
2838;SDS011;1427;48.510;9.060;2023-08-08T01:26:10;46.13;;;1.90;;
2838;SDS011;1427;48.510;9.060;2023-08-08T01:28:39;45.53;;;1.57;;
2838;SDS011;1427;48.510;9.060;2023-08-08T01:31:07;45.77;;;1.60;;
2838;SDS011;1427;48.510;9.060;2023-08-08T01:33:35;45.40;;;1.47;;
2838;SDS011;1427;48.510;9.060;2023-08-08T01:36:04;45.67;;;1.37;;
2838;SDS011;1427;48.510;9.060;2023-08-08T01:38:41;45.60;;;1.43;;
2838;SDS011;1427;48.510;9.060;2023-08-08T01:41:12;46.40;;;1.43;;
2838;SDS011;1427;48.510;9.060;2023-08-08T01:43:42;45.93;;;1.60;;
2838;SDS011;1427;48.510;9.060;2023-08-08T01:46:10;45.97;;;1.70;;
2838;SDS011;1427;48.510;9.060;2023-08-08T01:48:39;46.17;;;2.07;;
2838;SDS011;1427;48.510;9.060;2023-08-08T01:51:07;45.57;;;1.50;;
2838;SDS011;1427;48.510;9.060;2023-08-08T01:53:35;46.20;;;2.00;;
2838;SDS011;1427;48.510;9.060;2023-08-08T01:56:03;45.50;;;1.70;;
2838;SDS011;1427;48.510;9.060;2023-08-08T01:58:32;45.67;;;1.30;;
2838;SDS011;1427;48.510;9.060;2023-08-08T02:01:00;45.77;;;1.57;;
2838;SDS011;1427;48.510;9.060;2023-08-08T02:03:28;45.77;;;1.70;;
2838;SDS011;1427;48.510;9.060;2023-08-08T02:05:56;45.30;;;1.27;;
2838;SDS011;1427;48.510;9.060;2023-08-08T02:08:25;45.43;;;1.30;;
2838;SDS011;1427;48.510;9.060;2023-08-08T02:10:53;45.40;;;1.30;;
2838;SDS011;1427;48.510;9.060;2023-08-08T02:13:20;45.70;;;1.53;;
2838;SDS011;1427;48.510;9.060;2023-08-08T02:15:50;45.50;;;1.80;;
2838;SDS011;1427;48.510;9.060;2023-08-08T02:18:19;45.50;;;1.60;;
2838;SDS011;1427;48.510;9.060;2023-08-08T02:20:47;45.50;;;1.47;;
2838;SDS011;1427;48.510;9.060;2023-08-08T02:23:15;45.33;;;1.30;;
2838;SDS011;1427;48.510;9.060;2023-08-08T02:25:43;45.50;;;1.30;;
2838;SDS011;1427;48.510;9.060;2023-08-08T02:28:11;45.70;;;1.47;;
2838;SDS011;1427;48.510;9.060;2023-08-08T02:30:39;45.67;;;1.37;;
2838;SDS011;1427;48.510;9.060;2023-08-08T02:33:08;45.57;;;1.47;;
2838;SDS011;1427;48.510;9.060;2023-08-08T02:35:37;45.87;;;1.63;;
2838;SDS011;1427;48.510;9.060;2023-08-08T02:38:05;47.67;;;1.47;;
2838;SDS011;1427;48.510;9.060;2023-08-08T02:40:33;45.90;;;1.50;;
2838;SDS011;1427;48.510;9.060;2023-08-08T02:43:01;45.50;;;1.30;;
2838;SDS011;1427;48.510;9.060;2023-08-08T02:45:29;45.57;;;1.43;;
2838;SDS011;1427;48.510;9.060;2023-08-08T02:47:57;45.83;;;1.57;;
2838;SDS011;1427;48.510;9.060;2023-08-08T02:50:26;45.87;;;1.30;;
2838;SDS011;1427;48.510;9.060;2023-08-08T02:52:54;45.10;;;1.20;;
2838;SDS011;1427;48.510;9.060;2023-08-08T02:55:23;45.50;;;1.50;;
2838;SDS011;1427;48.510;9.060;2023-08-08T02:57:51;45.43;;;1.40;;
2838;SDS011;1427;48.510;9.060;2023-08-08T03:00:19;45.77;;;1.30;;
2838;SDS011;1427;48.510;9.060;2023-08-08T03:02:47;45.57;;;1.30;;
2838;SDS011;1427;48.510;9.060;2023-08-08T03:05:15;45.50;;;1.20;;
2838;SDS011;1427;48.510;9.060;2023-08-08T03:07:45;45.63;;;1.43;;
2838;SDS011;1427;48.510;9.060;2023-08-08T03:10:13;45.47;;;1.40;;
2838;SDS011;1427;48.510;9.060;2023-08-08T03:12:41;45.97;;;1.97;;
2838;SDS011;1427;48.510;9.060;2023-08-08T03:15:10;45.50;;;1.40;;
2838;SDS011;1427;48.510;9.060;2023-08-08T03:17:39;45.43;;;1.43;;
2838;SDS011;1427;48.510;9.060;2023-08-08T03:20:07;46.07;;;1.30;;
2838;SDS011;1427;48.510;9.060;2023-08-08T03:22:37;45.97;;;1.53;;
2838;SDS011;1427;48.510;9.060;2023-08-08T03:25:07;45.50;;;1.33;;
2838;SDS011;1427;48.510;9.060;2023-08-08T03:27:36;45.40;;;1.67;;
2838;SDS011;1427;48.510;9.060;2023-08-08T03:30:04;45.70;;;1.47;;
2838;SDS011;1427;48.510;9.060;2023-08-08T03:32:33;46.07;;;1.40;;
2838;SDS011;1427;48.510;9.060;2023-08-08T03:35:01;45.93;;;1.50;;
2838;SDS011;1427;48.510;9.060;2023-08-08T03:37:30;45.47;;;1.30;;
2838;SDS011;1427;48.510;9.060;2023-08-08T03:39:58;45.60;;;1.60;;
2838;SDS011;1427;48.510;9.060;2023-08-08T03:42:28;45.50;;;1.13;;
2838;SDS011;1427;48.510;9.060;2023-08-08T03:44:57;46.13;;;1.47;;
2838;SDS011;1427;48.510;9.060;2023-08-08T03:47:25;45.97;;;1.73;;
2838;SDS011;1427;48.510;9.060;2023-08-08T03:49:54;45.50;;;1.40;;
2838;SDS011;1427;48.510;9.060;2023-08-08T03:52:23;45.40;;;1.17;;
2838;SDS011;1427;48.510;9.060;2023-08-08T03:54:52;45.57;;;1.47;;
2838;SDS011;1427;48.510;9.060;2023-08-08T03:57:20;46.97;;;1.40;;
2838;SDS011;1427;48.510;9.060;2023-08-08T03:59:49;45.50;;;1.40;;
2838;SDS011;1427;48.510;9.060;2023-08-08T04:02:17;45.93;;;1.83;;
2838;SDS011;1427;48.510;9.060;2023-08-08T04:04:45;45.57;;;1.60;;
2838;SDS011;1427;48.510;9.060;2023-08-08T04:07:13;45.27;;;1.10;;
2838;SDS011;1427;48.510;9.060;2023-08-08T04:09:41;46.03;;;1.90;;
2838;SDS011;1427;48.510;9.060;2023-08-08T04:12:09;45.63;;;1.33;;
2838;SDS011;1427;48.510;9.060;2023-08-08T04:14:37;45.40;;;1.40;;
2838;SDS011;1427;48.510;9.060;2023-08-08T04:17:06;45.63;;;1.53;;
2838;SDS011;1427;48.510;9.060;2023-08-08T04:19:34;45.23;;;1.20;;
2838;SDS011;1427;48.510;9.060;2023-08-08T04:22:03;45.53;;;1.40;;
2838;SDS011;1427;48.510;9.060;2023-08-08T04:24:31;47.47;;;4.37;;
2838;SDS011;1427;48.510;9.060;2023-08-08T04:26:59;49.20;;;5.57;;
2838;SDS011;1427;48.510;9.060;2023-08-08T04:29:27;46.70;;;3.20;;
2838;SDS011;1427;48.510;9.060;2023-08-08T04:31:55;46.80;;;3.27;;
2838;SDS011;1427;48.510;9.060;2023-08-08T04:34:25;46.70;;;3.53;;
2838;SDS011;1427;48.510;9.060;2023-08-08T04:36:53;47.60;;;3.57;;
2838;SDS011;1427;48.510;9.060;2023-08-08T04:39:21;46.67;;;3.43;;
2838;SDS011;1427;48.510;9.060;2023-08-08T04:41:49;47.23;;;3.60;;
2838;SDS011;1427;48.510;9.060;2023-08-08T04:44:17;47.80;;;4.97;;
2838;SDS011;1427;48.510;9.060;2023-08-08T04:46:45;46.97;;;3.40;;
2838;SDS011;1427;48.510;9.060;2023-08-08T04:49:13;46.80;;;3.70;;
2838;SDS011;1427;48.510;9.060;2023-08-08T04:51:42;47.00;;;3.60;;
2838;SDS011;1427;48.510;9.060;2023-08-08T04:54:10;46.47;;;2.93;;
2838;SDS011;1427;48.510;9.060;2023-08-08T04:56:38;46.97;;;3.87;;
2838;SDS011;1427;48.510;9.060;2023-08-08T04:59:06;47.10;;;3.63;;
2838;SDS011;1427;48.510;9.060;2023-08-08T05:01:34;46.70;;;3.07;;
2838;SDS011;1427;48.510;9.060;2023-08-08T05:04:02;46.90;;;3.53;;
2838;SDS011;1427;48.510;9.060;2023-08-08T05:06:30;47.17;;;4.13;;
2838;SDS011;1427;48.510;9.060;2023-08-08T05:09:00;47.57;;;3.53;;
2838;SDS011;1427;48.510;9.060;2023-08-08T05:11:28;47.30;;;3.60;;
2838;SDS011;1427;48.510;9.060;2023-08-08T05:13:56;47.00;;;3.23;;
2838;SDS011;1427;48.510;9.060;2023-08-08T05:16:24;46.80;;;3.87;;
2838;SDS011;1427;48.510;9.060;2023-08-08T05:18:52;47.60;;;3.43;;
2838;SDS011;1427;48.510;9.060;2023-08-08T05:21:21;48.10;;;3.70;;
2838;SDS011;1427;48.510;9.060;2023-08-08T05:23:49;49.97;;;4.63;;
2838;SDS011;1427;48.510;9.060;2023-08-08T05:26:18;47.13;;;4.03;;
2838;SDS011;1427;48.510;9.060;2023-08-08T05:28:46;46.97;;;3.40;;
2838;SDS011;1427;48.510;9.060;2023-08-08T05:31:14;46.90;;;3.90;;
2838;SDS011;1427;48.510;9.060;2023-08-08T05:33:42;47.47;;;4.53;;
2838;SDS011;1427;48.510;9.060;2023-08-08T05:36:10;48.50;;;3.30;;
2838;SDS011;1427;48.510;9.060;2023-08-08T05:38:38;47.70;;;4.93;;
2838;SDS011;1427;48.510;9.060;2023-08-08T05:41:07;46.50;;;3.00;;
2838;SDS011;1427;48.510;9.060;2023-08-08T05:43:36;47.20;;;3.60;;
2838;SDS011;1427;48.510;9.060;2023-08-08T05:46:04;47.10;;;4.20;;
2838;SDS011;1427;48.510;9.060;2023-08-08T05:48:32;47.27;;;3.83;;
2838;SDS011;1427;48.510;9.060;2023-08-08T05:51:00;47.77;;;3.30;;
2838;SDS011;1427;48.510;9.060;2023-08-08T05:53:31;46.57;;;3.43;;
2838;SDS011;1427;48.510;9.060;2023-08-08T05:55:59;47.07;;;3.47;;
2838;SDS011;1427;48.510;9.060;2023-08-08T05:58:27;47.10;;;3.70;;
2838;SDS011;1427;48.510;9.060;2023-08-08T06:00:56;47.10;;;3.37;;
2838;SDS011;1427;48.510;9.060;2023-08-08T06:03:24;47.03;;;3.47;;
2838;SDS011;1427;48.510;9.060;2023-08-08T06:05:54;46.60;;;3.40;;
2838;SDS011;1427;48.510;9.060;2023-08-08T06:08:22;46.70;;;3.20;;
2838;SDS011;1427;48.510;9.060;2023-08-08T06:10:50;47.17;;;3.50;;
2838;SDS011;1427;48.510;9.060;2023-08-08T06:13:18;46.97;;;3.90;;
2838;SDS011;1427;48.510;9.060;2023-08-08T06:15:46;48.70;;;3.47;;
2838;SDS011;1427;48.510;9.060;2023-08-08T06:18:17;47.00;;;3.33;;
2838;SDS011;1427;48.510;9.060;2023-08-08T06:20:56;46.77;;;3.57;;
2838;SDS011;1427;48.510;9.060;2023-08-08T06:23:24;47.30;;;3.07;;
2838;SDS011;1427;48.510;9.060;2023-08-08T06:25:52;52.73;;;3.50;;
2838;SDS011;1427;48.510;9.060;2023-08-08T06:28:20;47.03;;;3.80;;
2838;SDS011;1427;48.510;9.060;2023-08-08T06:30:48;46.60;;;2.73;;
2838;SDS011;1427;48.510;9.060;2023-08-08T06:33:18;47.03;;;3.40;;
2838;SDS011;1427;48.510;9.060;2023-08-08T06:35:45;46.77;;;2.93;;
2838;SDS011;1427;48.510;9.060;2023-08-08T06:38:13;47.17;;;3.67;;
2838;SDS011;1427;48.510;9.060;2023-08-08T06:40:41;48.37;;;3.63;;
2838;SDS011;1427;48.510;9.060;2023-08-08T06:43:09;47.60;;;3.57;;
2838;SDS011;1427;48.510;9.060;2023-08-08T06:45:38;48.50;;;3.67;;
2838;SDS011;1427;48.510;9.060;2023-08-08T06:48:06;46.50;;;3.20;;
2838;SDS011;1427;48.510;9.060;2023-08-08T06:50:36;46.83;;;3.40;;
2838;SDS011;1427;48.510;9.060;2023-08-08T06:53:04;47.00;;;3.90;;
2838;SDS011;1427;48.510;9.060;2023-08-08T06:55:33;46.70;;;3.40;;
2838;SDS011;1427;48.510;9.060;2023-08-08T06:58:01;46.80;;;3.47;;
2838;SDS011;1427;48.510;9.060;2023-08-08T07:00:29;48.27;;;4.23;;
2838;SDS011;1427;48.510;9.060;2023-08-08T07:02:57;47.03;;;3.07;;
2838;SDS011;1427;48.510;9.060;2023-08-08T07:05:27;46.87;;;3.23;;
2838;SDS011;1427;48.510;9.060;2023-08-08T07:07:57;47.20;;;4.13;;
2838;SDS011;1427;48.510;9.060;2023-08-08T07:10:25;46.10;;;3.40;;
2838;SDS011;1427;48.510;9.060;2023-08-08T07:12:55;46.80;;;3.33;;
2838;SDS011;1427;48.510;9.060;2023-08-08T07:15:23;46.50;;;3.00;;
2838;SDS011;1427;48.510;9.060;2023-08-08T07:17:51;46.90;;;3.13;;
2838;SDS011;1427;48.510;9.060;2023-08-08T07:20:19;47.40;;;4.43;;
2838;SDS011;1427;48.510;9.060;2023-08-08T07:22:49;46.60;;;3.30;;
2838;SDS011;1427;48.510;9.060;2023-08-08T07:25:18;48.77;;;3.40;;
2838;SDS011;1427;48.510;9.060;2023-08-08T07:27:46;47.50;;;4.27;;
2838;SDS011;1427;48.510;9.060;2023-08-08T07:30:14;46.90;;;3.30;;
2838;SDS011;1427;48.510;9.060;2023-08-08T07:32:43;46.80;;;3.50;;
2838;SDS011;1427;48.510;9.060;2023-08-08T07:35:11;46.77;;;3.30;;
2838;SDS011;1427;48.510;9.060;2023-08-08T07:37:39;47.03;;;3.67;;
2838;SDS011;1427;48.510;9.060;2023-08-08T07:40:13;46.30;;;3.10;;
2838;SDS011;1427;48.510;9.060;2023-08-08T07:42:43;47.10;;;3.60;;
2838;SDS011;1427;48.510;9.060;2023-08-08T07:45:11;47.20;;;3.10;;
2838;SDS011;1427;48.510;9.060;2023-08-08T07:47:39;47.37;;;3.77;;
2838;SDS011;1427;48.510;9.060;2023-08-08T07:50:07;46.90;;;3.50;;
2838;SDS011;1427;48.510;9.060;2023-08-08T07:52:36;47.17;;;4.30;;
2838;SDS011;1427;48.510;9.060;2023-08-08T07:55:05;46.33;;;2.80;;
2838;SDS011;1427;48.510;9.060;2023-08-08T07:57:33;46.47;;;2.63;;
2838;SDS011;1427;48.510;9.060;2023-08-08T08:00:03;48.00;;;3.90;;
2838;SDS011;1427;48.510;9.060;2023-08-08T08:02:38;47.00;;;3.70;;
2838;SDS011;1427;48.510;9.060;2023-08-08T08:05:07;46.83;;;3.20;;
2838;SDS011;1427;48.510;9.060;2023-08-08T08:07:36;46.60;;;3.00;;
2838;SDS011;1427;48.510;9.060;2023-08-08T08:10:06;47.17;;;3.83;;
2838;SDS011;1427;48.510;9.060;2023-08-08T08:12:36;46.53;;;3.20;;
2838;SDS011;1427;48.510;9.060;2023-08-08T08:15:06;45.90;;;2.73;;
2838;SDS011;1427;48.510;9.060;2023-08-08T08:17:35;46.90;;;3.07;;
2838;SDS011;1427;48.510;9.060;2023-08-08T08:20:04;46.80;;;3.53;;
2838;SDS011;1427;48.510;9.060;2023-08-08T08:22:37;46.70;;;3.43;;
2838;SDS011;1427;48.510;9.060;2023-08-08T08:25:05;46.60;;;3.40;;
2838;SDS011;1427;48.510;9.060;2023-08-08T08:27:35;46.77;;;3.23;;
2838;SDS011;1427;48.510;9.060;2023-08-08T08:30:06;46.80;;;3.20;;
2838;SDS011;1427;48.510;9.060;2023-08-08T08:32:36;46.57;;;3.23;;
2838;SDS011;1427;48.510;9.060;2023-08-08T08:35:04;46.90;;;2.87;;
2838;SDS011;1427;48.510;9.060;2023-08-08T08:37:34;46.93;;;3.57;;
2838;SDS011;1427;48.510;9.060;2023-08-08T08:40:02;47.33;;;3.70;;
2838;SDS011;1427;48.510;9.060;2023-08-08T08:42:31;47.07;;;4.10;;
2838;SDS011;1427;48.510;9.060;2023-08-08T08:45:01;46.77;;;3.53;;
2838;SDS011;1427;48.510;9.060;2023-08-08T08:47:32;46.60;;;3.23;;
2838;SDS011;1427;48.510;9.060;2023-08-08T08:50:02;46.67;;;3.33;;
2838;SDS011;1427;48.510;9.060;2023-08-08T08:52:31;46.93;;;3.40;;
2838;SDS011;1427;48.510;9.060;2023-08-08T08:55:00;46.50;;;3.13;;
2838;SDS011;1427;48.510;9.060;2023-08-08T08:57:28;46.40;;;2.83;;
2838;SDS011;1427;48.510;9.060;2023-08-08T08:59:56;46.87;;;3.53;;
2838;SDS011;1427;48.510;9.060;2023-08-08T09:02:26;46.70;;;3.30;;
2838;SDS011;1427;48.510;9.060;2023-08-08T09:04:56;46.63;;;2.83;;
2838;SDS011;1427;48.510;9.060;2023-08-08T09:07:24;46.60;;;3.07;;
2838;SDS011;1427;48.510;9.060;2023-08-08T09:09:54;46.67;;;3.20;;
2838;SDS011;1427;48.510;9.060;2023-08-08T09:12:22;46.90;;;3.60;;
2838;SDS011;1427;48.510;9.060;2023-08-08T09:14:54;46.70;;;3.40;;
2838;SDS011;1427;48.510;9.060;2023-08-08T09:17:24;46.80;;;3.23;;
2838;SDS011;1427;48.510;9.060;2023-08-08T09:20:13;46.67;;;3.40;;
2838;SDS011;1427;48.510;9.060;2023-08-08T09:22:41;47.30;;;3.27;;
2838;SDS011;1427;48.510;9.060;2023-08-08T09:25:09;46.83;;;3.40;;
2838;SDS011;1427;48.510;9.060;2023-08-08T09:27:39;47.07;;;3.47;;
2838;SDS011;1427;48.510;9.060;2023-08-08T09:30:09;46.80;;;3.47;;
2838;SDS011;1427;48.510;9.060;2023-08-08T09:32:38;46.57;;;2.83;;
2838;SDS011;1427;48.510;9.060;2023-08-08T09:35:06;46.67;;;3.37;;
2838;SDS011;1427;48.510;9.060;2023-08-08T09:37:37;46.57;;;3.33;;
2838;SDS011;1427;48.510;9.060;2023-08-08T09:40:07;46.70;;;3.27;;
2838;SDS011;1427;48.510;9.060;2023-08-08T09:42:39;46.67;;;3.20;;
2838;SDS011;1427;48.510;9.060;2023-08-08T09:45:09;46.87;;;3.47;;
2838;SDS011;1427;48.510;9.060;2023-08-08T09:47:38;46.77;;;3.03;;
2838;SDS011;1427;48.510;9.060;2023-08-08T09:50:06;46.77;;;3.17;;
2838;SDS011;1427;48.510;9.060;2023-08-08T09:52:35;46.27;;;2.93;;
2838;SDS011;1427;48.510;9.060;2023-08-08T09:55:06;47.00;;;3.23;;
2838;SDS011;1427;48.510;9.060;2023-08-08T09:57:34;46.37;;;3.17;;
2838;SDS011;1427;48.510;9.060;2023-08-08T10:00:04;47.17;;;4.10;;
2838;SDS011;1427;48.510;9.060;2023-08-08T10:02:38;46.67;;;2.83;;
2838;SDS011;1427;48.510;9.060;2023-08-08T10:05:06;46.77;;;3.53;;
2838;SDS011;1427;48.510;9.060;2023-08-08T10:07:35;46.20;;;2.67;;
2838;SDS011;1427;48.510;9.060;2023-08-08T10:10:05;46.30;;;2.77;;
2838;SDS011;1427;48.510;9.060;2023-08-08T10:12:35;46.30;;;2.80;;
2838;SDS011;1427;48.510;9.060;2023-08-08T10:15:06;46.30;;;2.70;;
2838;SDS011;1427;48.510;9.060;2023-08-08T10:17:36;46.60;;;2.93;;
2838;SDS011;1427;48.510;9.060;2023-08-08T10:20:05;46.90;;;2.87;;
2838;SDS011;1427;48.510;9.060;2023-08-08T10:22:41;46.27;;;2.70;;
2838;SDS011;1427;48.510;9.060;2023-08-08T10:25:18;46.93;;;3.50;;
2838;SDS011;1427;48.510;9.060;2023-08-08T10:27:47;47.57;;;4.10;;
2838;SDS011;1427;48.510;9.060;2023-08-08T10:30:15;46.60;;;3.30;;
2838;SDS011;1427;48.510;9.060;2023-08-08T10:32:43;46.87;;;2.83;;
2838;SDS011;1427;48.510;9.060;2023-08-08T10:35:13;46.67;;;3.43;;
2838;SDS011;1427;48.510;9.060;2023-08-08T10:37:51;46.40;;;3.00;;
2838;SDS011;1427;48.510;9.060;2023-08-08T10:40:21;46.50;;;3.27;;
2838;SDS011;1427;48.510;9.060;2023-08-08T10:42:49;46.40;;;3.33;;
2838;SDS011;1427;48.510;9.060;2023-08-08T10:45:19;47.27;;;3.43;;
2838;SDS011;1427;48.510;9.060;2023-08-08T10:47:47;47.43;;;3.70;;
2838;SDS011;1427;48.510;9.060;2023-08-08T10:50:16;46.80;;;3.20;;
2838;SDS011;1427;48.510;9.060;2023-08-08T10:52:51;46.60;;;3.30;;
2838;SDS011;1427;48.510;9.060;2023-08-08T10:55:22;46.27;;;2.83;;
2838;SDS011;1427;48.510;9.060;2023-08-08T10:57:55;46.93;;;3.53;;
2838;SDS011;1427;48.510;9.060;2023-08-08T11:00:26;46.77;;;3.10;;
2838;SDS011;1427;48.510;9.060;2023-08-08T11:02:56;47.00;;;3.30;;
2838;SDS011;1427;48.510;9.060;2023-08-08T11:05:25;46.30;;;2.77;;
2838;SDS011;1427;48.510;9.060;2023-08-08T11:07:58;47.20;;;3.17;;
2838;SDS011;1427;48.510;9.060;2023-08-08T11:10:28;46.57;;;3.40;;
2838;SDS011;1427;48.510;9.060;2023-08-08T11:12:58;46.60;;;3.10;;
2838;SDS011;1427;48.510;9.060;2023-08-08T11:15:27;46.40;;;3.23;;
2838;SDS011;1427;48.510;9.060;2023-08-08T11:17:56;47.30;;;3.93;;
2838;SDS011;1427;48.510;9.060;2023-08-08T11:20:24;46.47;;;2.80;;
2838;SDS011;1427;48.510;9.060;2023-08-08T11:22:56;47.30;;;3.77;;
2838;SDS011;1427;48.510;9.060;2023-08-08T11:25:25;46.70;;;3.13;;
2838;SDS011;1427;48.510;9.060;2023-08-08T11:27:56;46.70;;;2.97;;
2838;SDS011;1427;48.510;9.060;2023-08-08T11:30:27;46.97;;;3.43;;
2838;SDS011;1427;48.510;9.060;2023-08-08T11:32:56;46.50;;;3.23;;
2838;SDS011;1427;48.510;9.060;2023-08-08T11:35:27;46.30;;;3.00;;
2838;SDS011;1427;48.510;9.060;2023-08-08T11:37:56;46.30;;;2.87;;
2838;SDS011;1427;48.510;9.060;2023-08-08T11:40:25;47.40;;;3.17;;
2838;SDS011;1427;48.510;9.060;2023-08-08T11:42:56;46.47;;;3.27;;
2838;SDS011;1427;48.510;9.060;2023-08-08T11:45:26;48.20;;;4.87;;
2838;SDS011;1427;48.510;9.060;2023-08-08T11:47:55;48.20;;;4.20;;
2838;SDS011;1427;48.510;9.060;2023-08-08T11:50:23;46.20;;;2.77;;
2838;SDS011;1427;48.510;9.060;2023-08-08T11:52:54;48.00;;;3.40;;
2838;SDS011;1427;48.510;9.060;2023-08-08T11:55:27;48.80;;;3.70;;
2838;SDS011;1427;48.510;9.060;2023-08-08T11:57:56;47.33;;;3.60;;
2838;SDS011;1427;48.510;9.060;2023-08-08T12:00:27;47.30;;;3.60;;
2838;SDS011;1427;48.510;9.060;2023-08-08T12:02:57;46.63;;;3.67;;
2838;SDS011;1427;48.510;9.060;2023-08-08T12:05:25;46.93;;;3.77;;
2838;SDS011;1427;48.510;9.060;2023-08-08T12:07:53;46.70;;;3.20;;
2838;SDS011;1427;48.510;9.060;2023-08-08T12:10:22;46.60;;;2.87;;
2838;SDS011;1427;48.510;9.060;2023-08-08T12:12:54;45.90;;;2.17;;
2838;SDS011;1427;48.510;9.060;2023-08-08T12:15:27;47.20;;;3.17;;
2838;SDS011;1427;48.510;9.060;2023-08-08T12:17:57;46.17;;;2.63;;
2838;SDS011;1427;48.510;9.060;2023-08-08T12:20:27;47.33;;;3.30;;
2838;SDS011;1427;48.510;9.060;2023-08-08T12:22:56;46.27;;;3.00;;
2838;SDS011;1427;48.510;9.060;2023-08-08T12:25:24;46.17;;;3.00;;
2838;SDS011;1427;48.510;9.060;2023-08-08T12:27:53;47.37;;;3.50;;
2838;SDS011;1427;48.510;9.060;2023-08-08T12:30:21;46.30;;;3.10;;
2838;SDS011;1427;48.510;9.060;2023-08-08T12:32:49;46.37;;;2.80;;
2838;SDS011;1427;48.510;9.060;2023-08-08T12:35:17;46.63;;;3.70;;
2838;SDS011;1427;48.510;9.060;2023-08-08T12:37:46;46.30;;;3.10;;
2838;SDS011;1427;48.510;9.060;2023-08-08T12:40:14;46.23;;;2.90;;
2838;SDS011;1427;48.510;9.060;2023-08-08T12:42:42;46.50;;;3.20;;
2838;SDS011;1427;48.510;9.060;2023-08-08T12:45:12;48.00;;;3.60;;
2838;SDS011;1427;48.510;9.060;2023-08-08T12:47:40;46.27;;;3.07;;
2838;SDS011;1427;48.510;9.060;2023-08-08T12:50:08;46.60;;;3.13;;
2838;SDS011;1427;48.510;9.060;2023-08-08T12:52:38;46.90;;;3.47;;
2838;SDS011;1427;48.510;9.060;2023-08-08T12:55:07;46.57;;;3.13;;
2838;SDS011;1427;48.510;9.060;2023-08-08T12:57:37;47.57;;;3.50;;
2838;SDS011;1427;48.510;9.060;2023-08-08T13:00:07;46.67;;;3.53;;
2838;SDS011;1427;48.510;9.060;2023-08-08T13:02:38;48.20;;;4.90;;
2838;SDS011;1427;48.510;9.060;2023-08-08T13:05:06;46.50;;;2.93;;
2838;SDS011;1427;48.510;9.060;2023-08-08T13:07:36;46.87;;;3.50;;
2838;SDS011;1427;48.510;9.060;2023-08-08T13:10:04;46.43;;;3.20;;
2838;SDS011;1427;48.510;9.060;2023-08-08T13:12:33;46.40;;;3.00;;
2838;SDS011;1427;48.510;9.060;2023-08-08T13:15:02;46.30;;;3.00;;
2838;SDS011;1427;48.510;9.060;2023-08-08T13:17:33;46.17;;;3.30;;
2838;SDS011;1427;48.510;9.060;2023-08-08T13:20:04;46.30;;;2.90;;
2838;SDS011;1427;48.510;9.060;2023-08-08T13:22:34;46.03;;;2.93;;
2838;SDS011;1427;48.510;9.060;2023-08-08T13:25:02;46.40;;;3.30;;
2838;SDS011;1427;48.510;9.060;2023-08-08T13:27:31;46.40;;;3.00;;
2838;SDS011;1427;48.510;9.060;2023-08-08T13:29:59;45.77;;;2.43;;
2838;SDS011;1427;48.510;9.060;2023-08-08T13:32:28;46.87;;;3.10;;
2838;SDS011;1427;48.510;9.060;2023-08-08T13:34:56;46.60;;;3.47;;
2838;SDS011;1427;48.510;9.060;2023-08-08T13:37:25;46.00;;;2.90;;
2838;SDS011;1427;48.510;9.060;2023-08-08T13:39:53;47.37;;;3.60;;
2838;SDS011;1427;48.510;9.060;2023-08-08T13:42:21;46.47;;;3.53;;
2838;SDS011;1427;48.510;9.060;2023-08-08T13:44:49;46.87;;;3.63;;
2838;SDS011;1427;48.510;9.060;2023-08-08T13:47:19;47.20;;;3.93;;
2838;SDS011;1427;48.510;9.060;2023-08-08T13:49:47;46.30;;;2.90;;
2838;SDS011;1427;48.510;9.060;2023-08-08T13:52:15;46.60;;;3.30;;
2838;SDS011;1427;48.510;9.060;2023-08-08T13:54:45;47.00;;;3.47;;
2838;SDS011;1427;48.510;9.060;2023-08-08T13:57:12;46.70;;;3.63;;
2838;SDS011;1427;48.510;9.060;2023-08-08T13:59:42;46.83;;;3.50;;
2838;SDS011;1427;48.510;9.060;2023-08-08T14:02:10;46.40;;;3.13;;
2838;SDS011;1427;48.510;9.060;2023-08-08T14:04:38;45.97;;;2.93;;
2838;SDS011;1427;48.510;9.060;2023-08-08T14:07:06;47.80;;;3.73;;
2838;SDS011;1427;48.510;9.060;2023-08-08T14:09:34;47.73;;;3.30;;
2838;SDS011;1427;48.510;9.060;2023-08-08T14:12:04;46.07;;;2.77;;
2838;SDS011;1427;48.510;9.060;2023-08-08T14:14:32;47.07;;;4.00;;
2838;SDS011;1427;48.510;9.060;2023-08-08T14:17:00;45.97;;;2.90;;
2838;SDS011;1427;48.510;9.060;2023-08-08T14:19:28;46.30;;;2.67;;
2838;SDS011;1427;48.510;9.060;2023-08-08T14:21:56;47.10;;;4.07;;
2838;SDS011;1427;48.510;9.060;2023-08-08T14:24:25;46.47;;;3.30;;
2838;SDS011;1427;48.510;9.060;2023-08-08T14:26:53;46.70;;;3.00;;
2838;SDS011;1427;48.510;9.060;2023-08-08T14:29:22;47.10;;;3.40;;
2838;SDS011;1427;48.510;9.060;2023-08-08T14:31:50;46.57;;;3.47;;
2838;SDS011;1427;48.510;9.060;2023-08-08T14:34:29;46.43;;;3.40;;
2838;SDS011;1427;48.510;9.060;2023-08-08T14:36:58;46.07;;;2.73;;
2838;SDS011;1427;48.510;9.060;2023-08-08T14:39:27;46.57;;;2.83;;
2838;SDS011;1427;48.510;9.060;2023-08-08T14:41:55;46.47;;;3.10;;
2838;SDS011;1427;48.510;9.060;2023-08-08T14:44:26;47.13;;;3.73;;
2838;SDS011;1427;48.510;9.060;2023-08-08T14:46:54;46.80;;;3.90;;
2838;SDS011;1427;48.510;9.060;2023-08-08T14:49:22;46.93;;;3.53;;
2838;SDS011;1427;48.510;9.060;2023-08-08T14:51:52;46.40;;;3.27;;
2838;SDS011;1427;48.510;9.060;2023-08-08T14:54:20;46.70;;;3.53;;
2838;SDS011;1427;48.510;9.060;2023-08-08T14:56:48;46.30;;;3.23;;
2838;SDS011;1427;48.510;9.060;2023-08-08T14:59:16;46.77;;;3.77;;
2838;SDS011;1427;48.510;9.060;2023-08-08T15:01:46;46.63;;;3.37;;
2838;SDS011;1427;48.510;9.060;2023-08-08T15:04:14;45.70;;;2.70;;
2838;SDS011;1427;48.510;9.060;2023-08-08T15:06:42;47.10;;;4.00;;
2838;SDS011;1427;48.510;9.060;2023-08-08T15:09:10;46.50;;;3.60;;
2838;SDS011;1427;48.510;9.060;2023-08-08T15:11:39;46.83;;;3.40;;